createdAt,value
2017-07-05T00:00:32.074Z,0
2017-07-05T00:01:12.660Z,0
2017-07-05T00:01:53.233Z,0
2017-07-05T00:02:33.874Z,0
2017-07-05T00:03:14.453Z,0
2017-07-05T00:03:55.025Z,0
2017-07-05T00:04:35.598Z,0
2017-07-05T00:05:16.185Z,0
2017-07-05T00:05:56.761Z,0
2017-07-05T00:06:37.351Z,0
2017-07-05T00:07:17.934Z,0
2017-07-05T00:07:58.504Z,0
2017-07-05T00:08:39.075Z,0
2017-07-05T00:09:19.639Z,0
2017-07-05T00:10:00.206Z,0
2017-07-05T00:10:40.828Z,0
2017-07-05T00:11:21.364Z,0
2017-07-05T00:12:01.978Z,0
2017-07-05T00:12:42.522Z,0
2017-07-05T00:13:23.089Z,0
2017-07-05T00:14:03.657Z,0
2017-07-05T00:14:44.227Z,0
2017-07-05T00:15:24.815Z,0
2017-07-05T00:16:05.395Z,0
2017-07-05T00:16:45.978Z,0
2017-07-05T00:17:26.543Z,0
2017-07-05T00:18:07.113Z,0
2017-07-05T00:18:47.677Z,0
2017-07-05T00:19:28.255Z,0
2017-07-05T00:20:08.828Z,0
2017-07-05T00:20:49.388Z,0
2017-07-05T00:21:29.973Z,0
2017-07-05T00:22:10.556Z,0
2017-07-05T00:22:51.123Z,0
2017-07-05T00:23:31.688Z,0
2017-07-05T00:24:12.259Z,0
2017-07-05T00:24:52.835Z,0
2017-07-05T00:25:33.472Z,0
2017-07-05T00:26:14.063Z,0
2017-07-05T00:26:54.643Z,0
2017-07-05T00:27:35.212Z,0
2017-07-05T00:28:15.825Z,0
2017-07-05T00:28:56.379Z,0
2017-07-05T00:29:36.996Z,0
2017-07-05T00:30:17.584Z,0
2017-07-05T00:30:58.160Z,0
2017-07-05T00:31:38.773Z,0
2017-07-05T00:32:19.370Z,0
2017-07-05T00:32:59.981Z,0
2017-07-05T00:33:40.573Z,0
2017-07-05T00:34:21.166Z,0
2017-07-05T00:35:01.742Z,0
2017-07-05T00:35:42.314Z,0
2017-07-05T00:36:22.886Z,0
2017-07-05T00:37:03.491Z,0
2017-07-05T00:37:44.067Z,0
2017-07-05T00:38:24.655Z,0
2017-07-05T00:39:05.251Z,0
2017-07-05T00:39:45.840Z,0
2017-07-05T00:40:26.408Z,0
2017-07-05T00:41:06.977Z,0
2017-07-05T00:41:47.549Z,0
2017-07-05T00:42:28.128Z,0
2017-07-05T00:43:08.692Z,0
2017-07-05T00:43:49.273Z,0
2017-07-05T00:44:29.847Z,0
2017-07-05T00:45:10.424Z,0
2017-07-05T00:45:50.992Z,0
2017-07-05T00:46:31.581Z,0
2017-07-05T00:47:12.159Z,0
2017-07-05T00:47:52.728Z,0
2017-07-05T00:48:33.298Z,0
2017-07-05T00:49:13.862Z,0
2017-07-05T00:49:54.449Z,0
2017-07-05T00:50:35.017Z,0
2017-07-05T00:51:15.601Z,0
2017-07-05T00:51:56.163Z,0
2017-07-05T00:52:36.728Z,0
2017-07-05T00:53:17.287Z,0
2017-07-05T00:53:57.850Z,0
2017-07-05T00:54:38.418Z,0
2017-07-05T00:55:19.001Z,0
2017-07-05T00:55:59.582Z,0
2017-07-05T00:56:40.144Z,0
2017-07-05T00:57:20.710Z,0
2017-07-05T00:58:01.281Z,0
2017-07-05T00:58:41.870Z,0
2017-07-05T00:59:22.439Z,0
2017-07-05T01:00:03.010Z,0
2017-07-05T01:00:43.578Z,0
2017-07-05T01:01:24.137Z,0
2017-07-05T01:02:04.705Z,0
2017-07-05T01:02:45.276Z,0
2017-07-05T01:03:25.838Z,0
2017-07-05T01:04:06.406Z,0
2017-07-05T01:04:46.986Z,0
2017-07-05T01:05:27.548Z,0
2017-07-05T01:06:08.252Z,0
2017-07-05T01:06:48.820Z,0
2017-07-05T01:07:29.387Z,0
2017-07-05T01:08:09.964Z,0
2017-07-05T01:08:50.540Z,0
2017-07-05T01:09:31.128Z,0
2017-07-05T01:10:11.693Z,0
2017-07-05T01:10:52.280Z,0
2017-07-05T01:11:32.850Z,0
2017-07-05T01:12:13.414Z,0
2017-07-05T01:12:53.988Z,0
2017-07-05T01:13:34.558Z,0
2017-07-05T01:14:15.119Z,0
2017-07-05T01:14:55.720Z,0
2017-07-05T01:15:36.301Z,0
2017-07-05T01:16:16.881Z,0
2017-07-05T01:16:57.448Z,0
2017-07-05T01:17:38.020Z,0
2017-07-05T01:18:18.581Z,0
2017-07-05T01:18:59.206Z,0
2017-07-05T01:19:39.728Z,0
2017-07-05T01:20:20.300Z,0
2017-07-05T01:21:00.871Z,0
2017-07-05T01:21:41.439Z,0
2017-07-05T01:22:22.027Z,0
2017-07-05T01:23:02.612Z,0
2017-07-05T01:23:43.180Z,0
2017-07-05T01:24:23.738Z,0
2017-07-05T01:25:04.306Z,0
2017-07-05T01:25:44.870Z,0
2017-07-05T01:26:25.462Z,0
2017-07-05T01:27:06.025Z,0
2017-07-05T01:27:46.590Z,0
2017-07-05T01:28:27.188Z,0
2017-07-05T01:29:07.793Z,0
2017-07-05T01:29:48.353Z,0
2017-07-05T01:30:28.929Z,0
2017-07-05T01:31:09.498Z,0
2017-07-05T01:31:50.063Z,0
2017-07-05T01:32:30.642Z,0
2017-07-05T01:33:11.227Z,0
2017-07-05T01:33:51.806Z,0
2017-07-05T01:34:32.379Z,0
2017-07-05T01:35:12.978Z,0
2017-07-05T01:35:53.561Z,0
2017-07-05T01:36:34.153Z,0
2017-07-05T01:37:14.756Z,0
2017-07-05T01:37:55.318Z,0
2017-07-05T01:38:35.897Z,0
2017-07-05T01:39:16.487Z,0
2017-07-05T01:39:57.077Z,0
2017-07-05T01:40:37.680Z,0
2017-07-05T01:41:18.259Z,0
2017-07-05T01:41:58.836Z,0
2017-07-05T01:42:39.410Z,0
2017-07-05T01:43:19.987Z,0
2017-07-05T01:44:00.555Z,0
2017-07-05T01:44:41.121Z,0
2017-07-05T01:45:21.698Z,0
2017-07-05T01:46:02.288Z,0
2017-07-05T01:46:42.860Z,0
2017-07-05T01:47:23.434Z,0
2017-07-05T01:48:04.005Z,0
2017-07-05T01:48:44.581Z,0
2017-07-05T01:49:25.177Z,0
2017-07-05T01:50:05.732Z,0
2017-07-05T01:50:46.322Z,0
2017-07-05T01:51:26.891Z,0
2017-07-05T01:52:07.471Z,0
2017-07-05T01:52:48.039Z,0
2017-07-05T01:53:28.620Z,0
2017-07-05T01:54:09.199Z,0
2017-07-05T01:54:49.828Z,0
2017-07-05T01:55:30.387Z,0
2017-07-05T01:56:10.946Z,0
2017-07-05T01:56:51.525Z,0
2017-07-05T01:57:32.101Z,0
2017-07-05T01:58:12.667Z,0
2017-07-05T01:58:53.255Z,0
2017-07-05T01:59:33.828Z,0
2017-07-05T02:00:14.406Z,0
2017-07-05T02:00:54.991Z,0
2017-07-05T02:01:35.578Z,0
2017-07-05T02:02:16.150Z,0
2017-07-05T02:02:56.718Z,0
2017-07-05T02:03:37.293Z,0
2017-07-05T02:04:17.873Z,0
2017-07-05T02:04:58.445Z,0
2017-07-05T02:05:39.014Z,0
2017-07-05T02:06:19.583Z,0
2017-07-05T02:07:00.155Z,0
2017-07-05T02:07:40.749Z,0
2017-07-05T02:08:21.317Z,0
2017-07-05T02:09:01.896Z,0
2017-07-05T02:09:42.484Z,0
2017-07-05T02:10:23.034Z,0
2017-07-05T02:11:03.616Z,0
2017-07-05T02:11:44.188Z,0
2017-07-05T02:12:24.752Z,0
2017-07-05T02:13:05.362Z,0
2017-07-05T02:13:45.890Z,0
2017-07-05T02:14:26.577Z,0
2017-07-05T02:15:07.175Z,0
2017-07-05T02:15:47.743Z,0
2017-07-05T02:16:28.314Z,0
2017-07-05T02:17:08.883Z,0
2017-07-05T02:17:49.454Z,0
2017-07-05T02:18:30.035Z,0
2017-07-05T02:19:10.601Z,0
2017-07-05T02:19:51.177Z,0
2017-07-05T02:20:31.765Z,0
2017-07-05T02:21:12.315Z,0
2017-07-05T02:21:52.880Z,0
2017-07-05T02:22:33.456Z,0
2017-07-05T02:23:14.026Z,0
2017-07-05T02:23:54.606Z,0
2017-07-05T02:24:35.169Z,0
2017-07-05T02:25:15.736Z,0
2017-07-05T02:25:56.310Z,0
2017-07-05T02:26:36.872Z,0
2017-07-05T02:27:17.438Z,0
2017-07-05T02:27:58.015Z,0
2017-07-05T02:28:38.594Z,0
2017-07-05T02:29:19.169Z,0
2017-07-05T02:29:59.753Z,0
2017-07-05T02:30:40.343Z,0
2017-07-05T02:31:20.898Z,0
2017-07-05T02:32:01.475Z,0
2017-07-05T02:32:42.047Z,0
2017-07-05T02:33:22.640Z,0
2017-07-05T02:34:03.211Z,0
2017-07-05T02:34:43.784Z,0
2017-07-05T02:35:24.357Z,0
2017-07-05T02:36:04.930Z,0
2017-07-05T02:36:45.543Z,0
2017-07-05T02:37:26.123Z,0
2017-07-05T02:38:06.712Z,0
2017-07-05T02:38:47.286Z,0
2017-07-05T02:39:27.844Z,0
2017-07-05T02:40:08.420Z,0
2017-07-05T02:40:48.977Z,0
2017-07-05T02:41:29.555Z,0
2017-07-05T02:42:10.127Z,0
2017-07-05T02:42:50.748Z,0
2017-07-05T02:43:31.350Z,0
2017-07-05T02:44:11.978Z,0
2017-07-05T02:44:52.553Z,0
2017-07-05T02:45:33.135Z,0
2017-07-05T02:46:13.702Z,0
2017-07-05T02:46:54.294Z,0
2017-07-05T02:47:34.909Z,0
2017-07-05T02:48:15.499Z,0
2017-07-05T02:48:56.066Z,0
2017-07-05T02:49:36.642Z,0
2017-07-05T02:50:17.224Z,0
2017-07-05T02:50:57.797Z,0
2017-07-05T02:51:38.369Z,0
2017-07-05T02:52:18.946Z,0
2017-07-05T02:52:59.516Z,0
2017-07-05T02:53:40.127Z,0
2017-07-05T02:54:20.689Z,0
2017-07-05T02:55:01.264Z,0
2017-07-05T02:55:41.839Z,0
2017-07-05T02:56:22.418Z,0
2017-07-05T02:57:02.977Z,0
2017-07-05T02:57:43.545Z,0
2017-07-05T02:58:24.136Z,0
2017-07-05T02:59:04.753Z,0
2017-07-05T02:59:45.319Z,0
2017-07-05T03:00:25.905Z,0
2017-07-05T03:01:06.477Z,0
2017-07-05T03:01:47.056Z,0
2017-07-05T03:02:27.630Z,0
2017-07-05T03:03:08.229Z,0
2017-07-05T03:03:48.788Z,0
2017-07-05T03:04:29.359Z,0
2017-07-05T03:05:09.926Z,0
2017-07-05T03:05:50.501Z,0
2017-07-05T03:06:31.086Z,0
2017-07-05T03:07:11.663Z,0
2017-07-05T03:07:52.256Z,0
2017-07-05T03:08:32.867Z,0
2017-07-05T03:09:13.439Z,0
2017-07-05T03:09:54.022Z,0
2017-07-05T03:10:34.611Z,0
2017-07-05T03:11:15.218Z,0
2017-07-05T03:11:55.820Z,0
2017-07-05T03:12:36.390Z,0
2017-07-05T03:13:17.011Z,0
2017-07-05T03:13:57.577Z,0
2017-07-05T03:14:38.190Z,0
2017-07-05T03:15:18.750Z,0
2017-07-05T03:15:59.346Z,0
2017-07-05T03:16:39.912Z,0
2017-07-05T03:17:20.515Z,5
2017-07-05T03:18:01.047Z,5
2017-07-05T03:18:41.618Z,5
2017-07-05T03:19:22.198Z,5
2017-07-05T03:20:02.767Z,5
2017-07-05T03:20:43.329Z,5
2017-07-05T03:21:23.912Z,5
2017-07-05T03:22:04.482Z,5
2017-07-05T03:22:45.053Z,5
2017-07-05T03:23:25.614Z,5
2017-07-05T03:24:06.173Z,5
2017-07-05T03:24:46.743Z,5
2017-07-05T03:25:27.315Z,5
2017-07-05T03:26:07.895Z,5
2017-07-05T03:26:48.468Z,5
2017-07-05T03:27:29.064Z,5
2017-07-05T03:28:09.670Z,5
2017-07-05T03:28:50.229Z,5
2017-07-05T03:29:30.807Z,5
2017-07-05T03:30:11.377Z,5
2017-07-05T03:30:51.989Z,5
2017-07-05T03:31:32.596Z,5
2017-07-05T03:32:13.181Z,5
2017-07-05T03:32:53.795Z,5
2017-07-05T03:33:34.367Z,5
2017-07-05T03:34:14.933Z,5
2017-07-05T03:34:55.533Z,5
2017-07-05T03:35:36.134Z,5
2017-07-05T03:36:16.724Z,5
2017-07-05T03:36:57.300Z,10
2017-07-05T03:37:37.870Z,10
2017-07-05T03:38:18.443Z,10
2017-07-05T03:38:59.003Z,10
2017-07-05T03:39:39.574Z,10
2017-07-05T03:40:20.158Z,10
2017-07-05T03:41:00.767Z,10
2017-07-05T03:41:41.345Z,10
2017-07-05T03:42:21.968Z,10
2017-07-05T03:43:02.576Z,10
2017-07-05T03:43:43.149Z,10
2017-07-05T03:44:23.725Z,10
2017-07-05T03:45:04.311Z,10
2017-07-05T03:45:44.908Z,10
2017-07-05T03:46:25.525Z,10
2017-07-05T03:47:06.112Z,10
2017-07-05T03:47:46.685Z,10
2017-07-05T03:48:27.274Z,10
2017-07-05T03:49:07.895Z,10
2017-07-05T03:49:48.478Z,10
2017-07-05T03:50:29.049Z,10
2017-07-05T03:51:09.610Z,10
2017-07-05T03:51:50.182Z,10
2017-07-05T03:52:30.751Z,10
2017-07-05T03:53:11.348Z,10
2017-07-05T03:53:51.927Z,10
2017-07-05T03:54:32.513Z,10
2017-07-05T03:55:13.082Z,10
2017-07-05T03:55:53.656Z,15
2017-07-05T03:56:34.225Z,15
2017-07-05T03:57:14.792Z,15
2017-07-05T03:57:55.379Z,15
2017-07-05T03:58:35.950Z,15
2017-07-05T03:59:16.526Z,15
2017-07-05T03:59:57.102Z,15
2017-07-05T04:00:37.678Z,15
2017-07-05T04:01:18.239Z,20
2017-07-05T04:01:58.802Z,20
2017-07-05T04:02:39.368Z,20
2017-07-05T04:03:19.934Z,15
2017-07-05T04:04:00.509Z,15
2017-07-05T04:04:41.080Z,15
2017-07-05T04:05:21.651Z,15
2017-07-05T04:06:02.236Z,15
2017-07-05T04:06:42.800Z,15
2017-07-05T04:07:23.382Z,15
2017-07-05T04:08:03.954Z,15
2017-07-05T04:08:44.511Z,15
2017-07-05T04:09:25.156Z,15
2017-07-05T04:10:05.673Z,20
2017-07-05T04:10:46.263Z,20
2017-07-05T04:11:26.828Z,20
2017-07-05T04:12:07.389Z,20
2017-07-05T04:12:47.960Z,20
2017-07-05T04:13:28.518Z,20
2017-07-05T04:14:09.111Z,15
2017-07-05T04:14:49.677Z,15
2017-07-05T04:15:30.260Z,15
2017-07-05T04:16:10.823Z,15
2017-07-05T04:16:51.410Z,15
2017-07-05T04:17:31.998Z,10
2017-07-05T04:18:12.567Z,10
2017-07-05T04:18:53.176Z,10
2017-07-05T04:19:33.753Z,10
2017-07-05T04:20:14.331Z,10
2017-07-05T04:20:54.924Z,10
2017-07-05T04:21:35.512Z,10
2017-07-05T04:22:16.085Z,10
2017-07-05T04:22:56.650Z,15
2017-07-05T04:23:37.244Z,15
2017-07-05T04:24:17.801Z,15
2017-07-05T04:24:58.370Z,15
2017-07-05T04:25:38.941Z,20
2017-07-05T04:26:19.995Z,20
2017-07-05T04:27:00.573Z,20
2017-07-05T04:27:41.139Z,20
2017-07-05T04:28:21.742Z,20
2017-07-05T04:29:02.304Z,15
2017-07-05T04:29:42.906Z,15
2017-07-05T04:30:23.533Z,15
2017-07-05T04:31:04.129Z,15
2017-07-05T04:31:44.695Z,15
2017-07-05T04:32:25.273Z,15
2017-07-05T04:33:05.844Z,15
2017-07-05T04:33:46.410Z,15
2017-07-05T04:34:26.979Z,15
2017-07-05T04:35:07.552Z,15
2017-07-05T04:35:48.120Z,15
2017-07-05T04:36:28.691Z,15
2017-07-05T04:37:09.255Z,20
2017-07-05T04:37:49.855Z,20
2017-07-05T04:38:30.415Z,25
2017-07-05T04:39:11.002Z,25
2017-07-05T04:39:51.621Z,30
2017-07-05T04:40:32.187Z,30
2017-07-05T04:41:12.886Z,35
2017-07-05T04:41:53.501Z,35
2017-07-05T04:42:34.071Z,35
2017-07-05T04:43:14.642Z,30
2017-07-05T04:43:55.225Z,30
2017-07-05T04:44:35.789Z,25
2017-07-05T04:45:16.358Z,20
2017-07-05T04:45:56.943Z,20
2017-07-05T04:46:37.509Z,20
2017-07-05T04:47:18.094Z,20
2017-07-05T04:47:58.691Z,15
2017-07-05T04:48:39.267Z,15
2017-07-05T04:49:19.912Z,15
2017-07-05T04:50:00.460Z,15
2017-07-05T04:50:41.024Z,15
2017-07-05T04:51:21.602Z,15
2017-07-05T04:52:02.182Z,15
2017-07-05T04:52:42.766Z,15
2017-07-05T04:53:23.351Z,15
2017-07-05T04:54:03.934Z,15
2017-07-05T04:54:44.502Z,15
2017-07-05T04:55:25.085Z,15
2017-07-05T04:56:05.657Z,15
2017-07-05T04:56:46.277Z,20
2017-07-05T04:57:26.826Z,20
2017-07-05T04:58:07.391Z,20
2017-07-05T04:58:47.981Z,20
2017-07-05T04:59:28.588Z,20
2017-07-05T05:00:09.234Z,25
2017-07-05T05:00:49.805Z,25
2017-07-05T05:01:30.384Z,25
2017-07-05T05:02:10.962Z,25
2017-07-05T05:02:51.556Z,25
2017-07-05T05:03:32.128Z,25
2017-07-05T05:04:12.713Z,25
2017-07-05T05:04:53.345Z,25
2017-07-05T05:05:33.923Z,25
2017-07-05T05:06:14.518Z,25
2017-07-05T05:06:55.099Z,20
2017-07-05T05:07:35.678Z,20
2017-07-05T05:08:16.248Z,25
2017-07-05T05:08:56.856Z,25
2017-07-05T05:09:37.422Z,20
2017-07-05T05:10:18.030Z,20
2017-07-05T05:10:58.657Z,20
2017-07-05T05:11:39.242Z,20
2017-07-05T05:12:19.835Z,20
2017-07-05T05:13:00.407Z,20
2017-07-05T05:13:40.996Z,20
2017-07-05T05:14:21.573Z,20
2017-07-05T05:15:02.138Z,15
2017-07-05T05:15:42.720Z,15
2017-07-05T05:16:23.309Z,15
2017-07-05T05:17:03.874Z,15
2017-07-05T05:17:44.454Z,15
2017-07-05T05:18:25.034Z,15
2017-07-05T05:19:05.667Z,15
2017-07-05T05:19:46.232Z,15
2017-07-05T05:20:26.808Z,15
2017-07-05T05:21:07.396Z,15
2017-07-05T05:21:47.987Z,15
2017-07-05T05:22:28.570Z,15
2017-07-05T05:23:09.149Z,15
2017-07-05T05:23:49.733Z,15
2017-07-05T05:24:30.337Z,15
2017-07-05T05:25:10.932Z,15
2017-07-05T05:25:51.496Z,15
2017-07-05T05:26:32.092Z,15
2017-07-05T05:27:12.656Z,15
2017-07-05T05:27:53.271Z,15
2017-07-05T05:28:33.859Z,15
2017-07-05T05:29:14.515Z,15
2017-07-05T05:29:55.105Z,15
2017-07-05T05:30:35.700Z,15
2017-07-05T05:31:16.266Z,15
2017-07-05T05:31:56.824Z,15
2017-07-05T05:32:37.394Z,15
2017-07-05T05:33:17.978Z,15
2017-07-05T05:33:58.576Z,15
2017-07-05T05:34:39.155Z,15
2017-07-05T05:35:19.753Z,15
2017-07-05T05:36:00.302Z,15
2017-07-05T05:36:40.889Z,15
2017-07-05T05:37:21.470Z,15
2017-07-05T05:38:02.047Z,10
2017-07-05T05:38:42.627Z,10
2017-07-05T05:39:23.247Z,10
2017-07-05T05:40:03.822Z,15
2017-07-05T05:40:44.391Z,15
2017-07-05T05:41:24.974Z,15
2017-07-05T05:42:05.556Z,15
2017-07-05T05:42:46.121Z,20
2017-07-05T05:43:26.691Z,20
2017-07-05T05:44:07.280Z,20
2017-07-05T05:44:47.884Z,20
2017-07-05T05:45:28.456Z,25
2017-07-05T05:46:09.030Z,25
2017-07-05T05:46:49.618Z,20
2017-07-05T05:47:30.207Z,20
2017-07-05T05:48:10.791Z,20
2017-07-05T05:48:51.371Z,20
2017-07-05T05:49:31.961Z,20
2017-07-05T05:50:12.537Z,20
2017-07-05T05:50:53.108Z,20
2017-07-05T05:51:33.670Z,20
2017-07-05T05:52:14.243Z,20
2017-07-05T05:52:54.811Z,25
2017-07-05T05:53:35.383Z,20
2017-07-05T05:54:15.952Z,20
2017-07-05T05:54:56.532Z,20
2017-07-05T05:55:37.099Z,20
2017-07-05T05:56:17.663Z,20
2017-07-05T05:56:58.250Z,20
2017-07-05T05:57:38.816Z,15
2017-07-05T05:58:19.396Z,15
2017-07-05T05:58:59.958Z,15
2017-07-05T05:59:40.541Z,15
2017-07-05T06:00:21.108Z,15
2017-07-05T06:01:01.680Z,15
2017-07-05T06:01:42.259Z,15
2017-07-05T06:02:22.835Z,15
2017-07-05T06:03:03.410Z,15
2017-07-05T06:03:44.005Z,15
2017-07-05T06:04:24.577Z,15
2017-07-05T06:05:05.148Z,15
2017-07-05T06:05:45.718Z,15
2017-07-05T06:06:26.294Z,15
2017-07-05T06:07:06.858Z,15
2017-07-05T06:07:47.438Z,15
2017-07-05T06:08:28.039Z,15
2017-07-05T06:09:08.646Z,15
2017-07-05T06:09:49.182Z,15
2017-07-05T06:10:29.783Z,15
2017-07-05T06:11:10.340Z,20
2017-07-05T06:11:50.916Z,20
2017-07-05T06:12:31.492Z,20
2017-07-05T06:13:12.061Z,20
2017-07-05T06:13:52.637Z,20
2017-07-05T06:14:33.198Z,15
2017-07-05T06:15:13.783Z,15
2017-07-05T06:15:54.346Z,15
2017-07-05T06:16:34.916Z,15
2017-07-05T06:17:15.486Z,15
2017-07-05T06:17:56.044Z,15
2017-07-05T06:18:36.619Z,15
2017-07-05T06:19:17.206Z,15
2017-07-05T06:19:57.777Z,15
2017-07-05T06:20:38.346Z,15
2017-07-05T06:21:18.913Z,15
2017-07-05T06:21:59.528Z,15
2017-07-05T06:22:40.091Z,15
2017-07-05T06:23:20.666Z,15
2017-07-05T06:24:01.263Z,15
2017-07-05T06:24:41.824Z,15
2017-07-05T06:25:22.411Z,15
2017-07-05T06:26:02.974Z,15
2017-07-05T06:26:43.578Z,15
2017-07-05T06:27:24.167Z,15
2017-07-05T06:28:04.730Z,15
2017-07-05T06:28:45.299Z,15
2017-07-05T06:29:25.863Z,15
2017-07-05T06:30:06.440Z,15
2017-07-05T06:30:47.010Z,15
2017-07-05T06:31:27.586Z,15
2017-07-05T06:32:08.193Z,15
2017-07-05T06:32:48.757Z,15
2017-07-05T06:33:29.333Z,15
2017-07-05T06:34:09.922Z,15
2017-07-05T06:34:50.491Z,20
2017-07-05T06:35:31.074Z,20
2017-07-05T06:36:11.640Z,20
2017-07-05T06:36:52.214Z,20
2017-07-05T06:37:32.805Z,20
2017-07-05T06:38:13.386Z,25
2017-07-05T06:38:53.969Z,25
2017-07-05T06:39:34.536Z,25
2017-07-05T06:40:15.124Z,25
2017-07-05T06:40:55.708Z,25
2017-07-05T06:41:36.294Z,25
2017-07-05T06:42:16.881Z,20
2017-07-05T06:42:57.452Z,20
2017-07-05T06:43:38.041Z,20
2017-07-05T06:44:18.620Z,25
2017-07-05T06:44:59.189Z,25
2017-07-05T06:45:39.758Z,30
2017-07-05T06:46:20.390Z,30
2017-07-05T06:47:00.923Z,30
2017-07-05T06:47:41.508Z,30
2017-07-05T06:48:22.089Z,30
2017-07-05T06:49:02.657Z,30
2017-07-05T06:49:43.228Z,30
2017-07-05T06:50:23.796Z,35
2017-07-05T06:51:04.352Z,40
2017-07-05T06:51:44.922Z,45
2017-07-05T06:52:25.494Z,45
2017-07-05T06:53:06.059Z,45
2017-07-05T06:53:46.629Z,45
2017-07-05T06:54:27.203Z,45
2017-07-05T06:55:07.778Z,45
2017-07-05T06:55:48.367Z,40
2017-07-05T06:56:28.945Z,40
2017-07-05T06:57:09.533Z,40
2017-07-05T06:57:50.103Z,40
2017-07-05T06:58:30.699Z,35
2017-07-05T06:59:11.279Z,35
2017-07-05T06:59:51.847Z,35
2017-07-05T07:00:32.421Z,35
2017-07-05T07:01:12.992Z,35
2017-07-05T07:01:53.576Z,35
2017-07-05T07:02:34.175Z,30
2017-07-05T07:03:14.764Z,30
2017-07-05T07:03:55.328Z,30
2017-07-05T07:04:35.923Z,25
2017-07-05T07:05:16.514Z,30
2017-07-05T07:05:57.089Z,30
2017-07-05T07:06:37.651Z,30
2017-07-05T07:07:18.220Z,35
2017-07-05T07:07:58.788Z,35
2017-07-05T07:08:39.367Z,30
2017-07-05T07:09:19.942Z,30
2017-07-05T07:10:00.503Z,30
2017-07-05T07:10:41.134Z,30
2017-07-05T07:11:21.662Z,30
2017-07-05T07:12:02.285Z,30
2017-07-05T07:12:42.811Z,30
2017-07-05T07:13:23.379Z,30
2017-07-05T07:14:03.979Z,30
2017-07-05T07:14:44.563Z,30
2017-07-05T07:15:25.143Z,35
2017-07-05T07:16:05.744Z,30
2017-07-05T07:16:46.323Z,30
2017-07-05T07:17:26.896Z,30
2017-07-05T07:18:07.488Z,30
2017-07-05T07:18:48.052Z,30
2017-07-05T07:19:28.627Z,30
2017-07-05T07:20:09.199Z,30
2017-07-05T07:20:49.772Z,30
2017-07-05T07:21:30.348Z,30
2017-07-05T07:22:10.913Z,30
2017-07-05T07:22:51.483Z,30
2017-07-05T07:23:32.079Z,30
2017-07-05T07:24:12.651Z,30
2017-07-05T07:24:53.221Z,25
2017-07-05T07:25:33.787Z,25
2017-07-05T07:26:14.366Z,25
2017-07-05T07:26:54.955Z,25
2017-07-05T07:27:35.551Z,25
2017-07-05T07:28:16.123Z,25
2017-07-05T07:28:56.695Z,25
2017-07-05T07:29:37.282Z,25
2017-07-05T07:30:17.853Z,25
2017-07-05T07:30:58.421Z,25
2017-07-05T07:31:39.013Z,30
2017-07-05T07:32:19.604Z,30
2017-07-05T07:33:00.175Z,30
2017-07-05T07:33:40.785Z,30
2017-07-05T07:34:21.390Z,30
2017-07-05T07:35:01.954Z,30
2017-07-05T07:35:42.515Z,30
2017-07-05T07:36:23.091Z,30
2017-07-05T07:37:03.661Z,30
2017-07-05T07:37:44.240Z,30
2017-07-05T07:38:24.805Z,30
2017-07-05T07:39:05.378Z,30
2017-07-05T07:39:45.946Z,30
2017-07-05T07:40:26.526Z,30
2017-07-05T07:41:07.114Z,30
2017-07-05T07:41:47.705Z,30
2017-07-05T07:42:28.273Z,35
2017-07-05T07:43:08.866Z,35
2017-07-05T07:43:49.426Z,40
2017-07-05T07:44:30.013Z,40
2017-07-05T07:45:10.632Z,40
2017-07-05T07:45:51.175Z,40
2017-07-05T07:46:31.770Z,45
2017-07-05T07:47:12.337Z,45
2017-07-05T07:47:52.991Z,45
2017-07-05T07:48:34.314Z,50
2017-07-05T07:49:14.914Z,50
2017-07-05T07:49:55.523Z,55
2017-07-05T07:50:36.111Z,55
2017-07-05T07:51:16.671Z,50
2017-07-05T07:51:57.388Z,50
2017-07-05T07:52:38.185Z,50
2017-07-05T07:53:18.759Z,50
2017-07-05T07:53:59.361Z,50
2017-07-05T07:54:40.349Z,50
2017-07-05T07:55:21.122Z,45
2017-07-05T07:56:01.689Z,40
2017-07-05T07:56:42.247Z,40
2017-07-05T07:57:22.838Z,40
2017-07-05T07:58:03.403Z,40
2017-07-05T07:58:44.063Z,40
2017-07-05T07:59:24.556Z,35
2017-07-05T08:00:05.205Z,35
2017-07-05T08:00:45.770Z,35
2017-07-05T08:01:26.361Z,35
2017-07-05T08:02:06.938Z,40
2017-07-05T08:02:47.533Z,40
2017-07-05T08:03:28.298Z,40
2017-07-05T08:04:09.035Z,40
2017-07-05T08:04:49.786Z,35
2017-07-05T08:05:30.268Z,35
2017-07-05T08:06:10.991Z,35
2017-07-05T08:06:51.712Z,35
2017-07-05T08:07:33.729Z,40
2017-07-05T08:08:14.358Z,40
2017-07-05T08:08:55.116Z,45
2017-07-05T08:09:35.664Z,45
2017-07-05T08:10:16.285Z,45
2017-07-05T08:10:57.142Z,45
2017-07-05T08:11:37.745Z,45
2017-07-05T08:12:18.318Z,50
2017-07-05T08:13:00.190Z,50
2017-07-05T08:13:40.699Z,60
2017-07-05T08:14:21.290Z,55
2017-07-05T08:15:01.918Z,60
2017-07-05T08:15:42.596Z,60
2017-07-05T08:16:24.957Z,60
2017-07-05T08:17:05.482Z,60
2017-07-05T08:17:46.396Z,60
2017-07-05T08:18:27.279Z,65
2017-07-05T08:19:08.068Z,70
2017-07-05T08:19:48.661Z,75
2017-07-05T08:20:29.560Z,80
2017-07-05T08:21:10.136Z,80
2017-07-05T08:21:50.717Z,85
2017-07-05T08:22:31.316Z,90
2017-07-05T08:23:11.925Z,100
2017-07-05T08:23:52.532Z,105
2017-07-05T08:24:33.098Z,105
2017-07-05T08:25:13.689Z,110
2017-07-05T08:25:54.259Z,110
2017-07-05T08:26:34.823Z,110
2017-07-05T08:27:15.409Z,110
2017-07-05T08:27:56.014Z,110
2017-07-05T08:28:36.588Z,115
2017-07-05T08:29:17.186Z,120
2017-07-05T08:29:57.739Z,125
2017-07-05T08:30:38.315Z,130
2017-07-05T08:31:18.878Z,135
2017-07-05T08:31:59.449Z,135
2017-07-05T08:32:40.037Z,130
2017-07-05T08:33:20.628Z,125
2017-07-05T08:34:01.201Z,120
2017-07-05T08:34:41.773Z,115
2017-07-05T08:35:22.343Z,115
2017-07-05T08:36:02.899Z,115
2017-07-05T08:36:43.490Z,120
2017-07-05T08:37:24.067Z,120
2017-07-05T08:38:04.664Z,115
2017-07-05T08:38:45.356Z,115
2017-07-05T08:39:25.920Z,115
2017-07-05T08:40:06.500Z,115
2017-07-05T08:40:47.067Z,115
2017-07-05T08:41:27.660Z,125
2017-07-05T08:42:08.295Z,130
2017-07-05T08:42:48.900Z,140
2017-07-05T08:43:29.422Z,145
2017-07-05T08:44:09.980Z,155
2017-07-05T08:44:50.553Z,170
2017-07-05T08:45:31.148Z,185
2017-07-05T08:46:11.736Z,185
2017-07-05T08:46:52.305Z,190
2017-07-05T08:47:32.881Z,175
2017-07-05T08:48:13.452Z,165
2017-07-05T08:48:54.034Z,175
2017-07-05T08:49:34.619Z,175
2017-07-05T08:50:15.186Z,175
2017-07-05T08:50:55.754Z,200
2017-07-05T08:51:36.324Z,205
2017-07-05T08:52:16.910Z,210
2017-07-05T08:52:57.472Z,215
2017-07-05T08:53:38.041Z,215
2017-07-05T08:54:18.674Z,235
2017-07-05T08:54:59.397Z,250
2017-07-05T08:55:40.137Z,260
2017-07-05T08:56:20.733Z,270
2017-07-05T08:57:01.307Z,275
2017-07-05T08:57:41.891Z,255
2017-07-05T08:58:22.467Z,275
2017-07-05T08:59:03.514Z,325
2017-07-05T08:59:44.112Z,360
2017-07-05T09:00:24.926Z,335
2017-07-05T09:01:05.504Z,300
2017-07-05T09:01:46.087Z,295
2017-07-05T09:02:26.672Z,295
2017-07-05T09:03:07.317Z,320
2017-07-05T09:03:47.891Z,325
2017-07-05T09:04:28.458Z,285
2017-07-05T09:05:09.066Z,265
2017-07-05T09:05:49.636Z,260
2017-07-05T09:06:30.276Z,240
2017-07-05T09:07:10.865Z,220
2017-07-05T09:07:51.504Z,215
2017-07-05T09:08:32.065Z,215
2017-07-05T09:09:12.635Z,215
2017-07-05T09:09:53.578Z,225
2017-07-05T09:10:34.151Z,285
2017-07-05T09:11:14.753Z,270
2017-07-05T09:13:32.914Z,240
2017-07-05T09:14:13.614Z,245
2017-07-05T09:14:54.177Z,265
2017-07-05T09:15:34.778Z,285
2017-07-05T09:16:15.349Z,280
2017-07-05T09:16:55.938Z,270
2017-07-05T09:17:36.529Z,255
2017-07-05T09:18:17.116Z,245
2017-07-05T09:18:57.720Z,240
2017-07-05T09:19:38.303Z,240
2017-07-05T09:20:18.871Z,240
2017-07-05T09:20:59.464Z,245
2017-07-05T09:21:40.025Z,250
2017-07-05T09:22:20.604Z,245
2017-07-05T09:23:01.190Z,240
2017-07-05T09:23:41.809Z,240
2017-07-05T09:24:22.372Z,235
2017-07-05T09:25:02.954Z,230
2017-07-05T09:25:43.527Z,220
2017-07-05T09:26:24.282Z,210
2017-07-05T09:27:04.881Z,200
2017-07-05T09:27:45.450Z,195
2017-07-05T09:28:26.016Z,190
2017-07-05T09:29:06.597Z,195
2017-07-05T09:29:47.167Z,195
2017-07-05T09:30:27.761Z,200
2017-07-05T09:31:08.372Z,210
2017-07-05T09:31:48.938Z,220
2017-07-05T09:32:29.496Z,235
2017-07-05T09:33:10.082Z,235
2017-07-05T09:33:50.658Z,240
2017-07-05T09:34:31.222Z,240
2017-07-05T09:35:11.842Z,240
2017-07-05T09:35:52.399Z,245
2017-07-05T09:36:32.989Z,240
2017-07-05T09:37:13.585Z,230
2017-07-05T09:37:54.170Z,220
2017-07-05T09:38:34.727Z,205
2017-07-05T09:39:15.311Z,185
2017-07-05T09:39:55.892Z,170
2017-07-05T09:40:36.468Z,165
2017-07-05T09:41:17.059Z,160
2017-07-05T09:41:57.634Z,155
2017-07-05T09:42:38.208Z,150
2017-07-05T09:43:18.785Z,155
2017-07-05T09:43:59.356Z,165
2017-07-05T09:44:39.956Z,160
2017-07-05T09:45:20.510Z,170